Hlavní strana
METAR-TAF:

METAR-TAF

Letiště :

Semej, Kazachstán

zeměpisná šířka: 50-21-05N, zeměpisná délka: 080-14-04E, výška: 232 m

Aktuální stav počasí

Zpráva byla vytvořena před 20 minutami, v 09:00 UTC
Východní vítr 6 kt
Teplota -10°C
Vlhkost vzduchu 79%
Tlak 1024 hPa
Viditelnost 10 km a více
Žádná oblačnost pod 1500 m, nevyskytují se cumulonimby.

METAR: UASS 110900Z 10003MPS CAVOK M10/M13 Q1024 R26/75//47 NOSIG RMK QFE750/1000

Čas: 15:20 (09:20 UTC)

Předpověď počasí

Zpráva byla vytvořena před 42 minutami, v 08:38 UTC
Předpověď platná od 11 v 09 UTC do 11 v 18 UTC
Jihovýchodní vítr 10 kt
Viditelnost 10 km a více
Polojasno ve výšce 3000 ft
Oblačno až skoro zataženo ve výšce 10000 ft
Dočasný
od 11 v 09 UTC do 11 v 15 UTC
vítr z různých směrů 4 kt
Viditelnost: 5000 m
kouřmo, kouř

TAF: UASS 110838Z 1109/1118 13005MPS 9999 SCT030 BKN100 TEMPO 1109/1115 VRB02MPS 5000 BR FU

Stav a předpovědi počasí z více než 4 000 letišť (zprávy METAR a TAF).

Červené a žluté tečky na mapě představují dostupné meteorologické stanice.

Když kurzor umístíte na tečku, zobrazí se název stanice.

Pak kliknutím zobrazíte stav a předpověď počasí.

Chcete-li změnit mapu, kliknutím na zelené tlačítko se znaménkem +mapu přiblížíte, kliknutím na zelené tlačítko se znaménkem – mapu oddálíte a kliknutím na zelené šipky přejdete na sousední mapy.


METAR-TAF: